Time;durP1;ratioP1;P1;durP2;ratioP2;P2;SDS_P1;SDS_P2;PMS_P1;PMS_P2;Temp;Humidity;BMP_temperature;BMP_pressure;BME280_temperature;BME280_humidity;BME280_pressure;Samples;Min_cycle;Max_cycle;Signal;HPM_P1;HPM_P2
2022/04/12 00:01:10;;;;;;;14.60;5.40;;;;;;;3.35;63.48;99313.30;106177;1274;97946;-72
2022/04/12 00:03:39;;;;;;;15.30;5.00;;;;;;;3.36;63.68;99315.70;106196;1274;107749;-72
2022/04/12 00:06:08;;;;;;;13.80;5.20;;;;;;;3.33;63.76;99314.73;106097;1274;97969;-75
2022/04/12 00:08:35;;;;;;;14.30;5.00;;;;;;;3.33;63.63;99311.41;106151;1274;97926;-72
2022/04/12 00:11:03;;;;;;;13.60;4.50;;;;;;;3.35;63.43;99309.23;106113;1275;111345;-74
2022/04/12 00:13:31;;;;;;;11.70;4.80;;;;;;;3.36;63.49;99312.17;106074;1278;95263;-72
2022/04/12 00:15:59;;;;;;;13.40;5.10;;;;;;;3.35;63.32;99307.48;106059;1274;107759;-71
2022/04/12 00:21:14;;;;;;;14.30;5.00;;;;;;;3.36;63.56;99307.98;106138;1274;97969;-72
2022/04/12 00:23:42;;;;;;;11.90;5.20;;;;;;;3.36;63.27;99309.20;106117;1274;111427;-73
2022/04/12 00:26:10;;;;;;;10.80;5.00;;;;;;;3.38;63.36;99310.00;106147;1277;97906;-72
2022/04/12 00:28:38;;;;;;;14.90;5.70;;;;;;;3.39;63.63;99313.12;106069;1274;107803;-71
2022/04/12 00:31:10;;;;;;;12.00;5.00;;;;;;;3.40;63.46;99308.51;106110;1274;97912;-72
2022/04/12 00:33:39;;;;;;;13.70;5.60;;;;;;;3.37;63.50;99308.27;106019;1274;95986;-70
2022/04/12 00:36:08;;;;;;;16.70;6.00;;;;;;;3.36;63.54;99306.24;106166;1274;111387;-70
2022/04/12 00:38:38;;;;;;;14.30;5.10;;;;;;;3.36;63.71;99310.61;106248;1274;97867;-71
2022/04/12 00:41:08;;;;;;;16.60;6.20;;;;;;;3.36;63.66;99312.53;106202;1274;107708;-72
2022/04/12 00:43:45;;;;;;;15.40;5.50;;;;;;;3.36;63.29;99313.59;106140;1274;95297;-72
2022/04/12 00:46:13;;;;;;;15.30;5.50;;;;;;;3.35;63.64;99314.69;106028;1274;98024;-71
2022/04/12 00:48:43;;;;;;;15.10;5.60;;;;;;;3.35;63.62;99313.46;106081;1274;111421;-71
2022/04/12 00:51:16;;;;;;;15.30;5.90;;;;;;;3.34;63.54;99312.95;106023;1274;95909;-72
2022/04/12 00:53:45;;;;;;;15.60;6.30;;;;;;;3.33;63.30;99309.50;105960;1274;107795;-72
2022/04/12 00:56:17;;;;;;;14.10;5.70;;;;;;;3.32;63.81;99307.10;105982;1274;96625;-72
2022/04/12 00:58:49;;;;;;;13.00;5.20;;;;;;;3.31;63.77;99308.36;106110;1274;97856;-72
2022/04/12 01:01:19;;;;;;;13.80;5.60;;;;;;;3.28;63.85;99305.11;106003;1274;111105;-71
2022/04/12 01:03:49;;;;;;;16.90;5.40;;;;;;;3.27;63.59;99304.64;106026;1274;95730;-72
2022/04/12 01:06:18;;;;;;;14.20;5.50;;;;;;;3.24;63.48;99305.45;106036;1274;107785;-72
2022/04/12 01:08:50;;;;;;;14.80;5.20;;;;;;;3.21;63.74;99304.52;105985;1277;97964;-72
2022/04/12 01:11:18;;;;;;;15.60;5.30;;;;;;;3.19;63.67;99307.77;105971;1276;97877;-71
2022/04/12 01:13:46;;;;;;;13.90;5.50;;;;;;;3.17;63.61;99304.33;106080;1274;111377;-72
2022/04/12 01:16:15;;;;;;;14.80;5.40;;;;;;;3.15;63.55;99301.08;106062;1274;99008;-70
2022/04/12 01:18:43;;;;;;;12.90;4.90;;;;;;;3.11;63.78;99301.02;106034;1274;108233;-71
2022/04/12 01:21:15;;;;;;;15.30;5.10;;;;;;;3.09;63.62;99305.13;105935;1277;97726;-73
2022/04/12 01:24:06;;;;;;;12.60;4.80;;;;;;;3.08;63.85;99304.67;106034;1274;97929;-72
2022/04/12 01:26:34;;;;;;;10.90;4.70;;;;;;;3.02;63.68;99305.93;106038;1274;111068;-71
2022/04/12 01:29:02;;;;;;;14.90;5.70;;;;;;;2.98;63.50;99309.59;106156;1274;97982;-71
2022/04/12 01:31:30;;;;;;;13.50;5.60;;;;;;;2.93;63.59;99314.14;106089;1276;105864;-73
2022/04/12 01:33:58;;;;;;;17.40;6.10;;;;;;;2.82;63.49;99311.41;106098;1277;97944;-71
2022/04/12 01:36:28;;;;;;;20.10;8.70;;;;;;;2.70;63.85;99312.02;106015;1277;97911;-74
2022/04/12 01:38:57;;;;;;;20.60;9.00;;;;;;;2.53;64.09;99309.63;106146;1274;112109;-71
2022/04/12 01:41:26;;;;;;;18.90;8.60;;;;;;;2.35;63.76;99316.24;105983;1277;95293;-71
2022/04/12 01:43:54;;;;;;;21.50;8.90;;;;;;;2.24;63.75;99315.89;106009;1274;109843;-72
2022/04/12 01:46:22;;;;;;;22.10;10.40;;;;;;;2.10;63.96;99316.72;106046;1274;98927;-72
2022/04/12 01:48:50;;;;;;;23.30;10.10;;;;;;;1.98;64.06;99316.26;106055;1274;97865;-71
2022/04/12 01:51:19;;;;;;;21.30;9.40;;;;;;;1.95;64.26;99313.39;106028;1274;111690;-71
2022/04/12 01:53:49;;;;;;;19.40;7.40;;;;;;;1.85;64.37;99311.64;106010;1274;98686;-71
2022/04/12 01:56:16;;;;;;;16.60;7.00;;;;;;;1.81;64.73;99314.20;106048;1274;107691;-72
2022/04/12 01:58:44;;;;;;;18.20;7.60;;;;;;;1.82;64.55;99315.23;106049;1274;97867;-72
2022/04/12 02:01:12;;;;;;;17.70;6.90;;;;;;;1.85;64.60;99317.55;106111;1274;97963;-70
2022/04/12 02:03:44;;;;;;;18.70;7.40;;;;;;;1.89;64.50;99320.20;106060;1276;112467;-71
2022/04/12 02:06:12;;;;;;;20.10;8.00;;;;;;;1.87;64.62;99317.48;106059;1274;97931;-71
2022/04/12 02:08:40;;;;;;;19.50;8.60;;;;;;;1.85;64.52;99323.66;106053;1273;107565;-72
2022/04/12 02:11:11;;;;;;;19.00;8.50;;;;;;;1.85;64.67;99321.04;106007;1274;98084;-73
2022/04/12 02:13:42;;;;;;;20.70;8.30;;;;;;;1.89;64.93;99321.61;106100;1274;97885;-71
2022/04/12 02:16:10;;;;;;;17.00;7.50;;;;;;;1.92;64.92;99326.25;106022;1275;111146;-71
2022/04/12 02:18:42;;;;;;;21.50;8.80;;;;;;;1.93;64.69;99325.87;106064;1274;95274;-72
2022/04/12 02:21:10;;;;;;;20.00;8.40;;;;;;;1.88;64.82;99327.60;106099;1274;107737;-73
2022/04/12 02:23:39;;;;;;;22.90;9.30;;;;;;;1.85;64.71;99328.39;106082;1274;97888;-73
2022/04/12 02:26:07;;;;;;;18.70;8.10;;;;;;;1.82;64.66;99334.27;106109;1274;95311;-73
2022/04/12 02:28:37;;;;;;;20.60;8.50;;;;;;;1.84;65.03;99332.63;106097;1276;111393;-73
2022/04/12 02:31:05;;;;;;;19.60;7.90;;;;;;;1.86;64.96;99334.67;106130;1274;97996;-75
2022/04/12 02:33:35;;;;;;;18.30;7.20;;;;;;;1.85;64.93;99334.68;106118;1274;107774;-73
2022/04/12 02:36:03;;;;;;;18.40;8.00;;;;;;;1.85;64.84;99334.34;106063;1277;98012;-72
2022/04/12 02:38:34;;;;;;;20.40;7.70;;;;;;;1.84;65.01;99328.08;106031;1274;96989;-73
2022/04/12 02:41:02;;;;;;;19.50;7.00;;;;;;;1.85;65.07;99328.22;105996;1276;111426;-74
2022/04/12 02:43:30;;;;;;;15.60;6.70;;;;;;;1.87;65.05;99323.08;106039;1274;95527;-73
2022/04/12 02:45:58;;;;;;;16.50;7.40;;;;;;;1.88;64.99;99319.20;106096;1277;107868;-72
2022/04/12 02:48:29;;;;;;;19.00;7.60;;;;;;;1.88;64.95;99323.39;106092;1274;98601;-73
2022/04/12 02:50:57;;;;;;;17.50;7.50;;;;;;;1.90;65.21;99322.63;106190;1274;97886;-73
2022/04/12 02:53:25;;;;;;;19.60;7.40;;;;;;;1.92;65.33;99322.55;106210;1274;111499;-73
2022/04/12 02:55:53;;;;;;;21.30;8.20;;;;;;;1.95;65.14;99319.15;106150;1273;95977;-72
2022/04/12 02:58:21;;;;;;;18.50;8.20;;;;;;;1.97;65.09;99317.19;106120;1277;107497;-73
2022/04/12 03:00:49;;;;;;;20.50;8.60;;;;;;;1.98;65.11;99314.00;106068;1277;97944;-72
2022/04/12 03:03:17;;;;;;;21.00;8.10;;;;;;;1.99;65.33;99311.84;106113;1277;95273;-72
2022/04/12 03:05:46;;;;;;;19.80;8.40;;;;;;;2.01;65.24;99309.33;106081;1274;111401;-72
2022/04/12 03:08:14;;;;;;;20.30;8.30;;;;;;;2.04;65.29;99316.75;106057;1274;95252;-73
2022/04/12 03:10:43;;;;;;;18.50;8.30;;;;;;;2.05;65.32;99316.38;106103;1274;107755;-70
2022/04/12 03:13:11;;;;;;;20.60;9.40;;;;;;;2.05;65.14;99322.48;106086;1274;97942;-71
2022/04/12 03:15:42;;;;;;;20.90;9.30;;;;;;;2.04;65.08;99328.99;106026;1274;95286;-70
2022/04/12 03:18:10;;;;;;;20.20;9.30;;;;;;;2.01;64.97;99330.86;106119;1274;111192;-70
2022/04/12 03:20:39;;;;;;;21.30;8.80;;;;;;;1.98;65.20;99333.77;106066;1274;95274;-72
2022/04/12 03:23:07;;;;;;;23.20;9.70;;;;;;;1.96;65.37;99331.73;105999;1274;107748;-71
2022/04/12 03:25:39;;;;;;;19.40;8.40;;;;;;;1.94;65.14;99331.60;106043;1274;97957;-72
2022/04/12 03:28:07;;;;;;;21.60;10.00;;;;;;;1.93;65.25;99328.84;106144;1273;97978;-72
2022/04/12 03:30:35;;;;;;;19.80;8.00;;;;;;;1.92;65.14;99324.16;105994;1274;111328;-73
2022/04/12 03:33:06;;;;;;;22.80;9.80;;;;;;;1.90;65.36;99328.05;106050;1274;95826;-73
2022/04/12 03:35:37;;;;;;;23.30;9.00;;;;;;;1.90;65.36;99328.05;105923;1277;108489;-73
2022/04/12 03:38:06;;;;;;;22.10;9.10;;;;;;;1.90;65.45;99335.22;106010;1274;97835;-72
2022/04/12 03:40:35;;;;;;;19.60;9.00;;;;;;;1.91;65.41;99340.80;105555;1274;670845;-72
2022/04/12 03:43:07;;;;;;;20.10;8.60;;;;;;;1.90;64.99;99340.30;106000;1274;110981;-74
2022/04/12 03:45:34;;;;;;;21.20;9.10;;;;;;;1.91;65.25;99341.86;105970;1277;98015;-73
2022/04/12 03:48:06;;;;;;;19.90;8.50;;;;;;;1.91;65.43;99343.95;106019;1274;108294;-71
2022/04/12 03:50:34;;;;;;;19.50;9.30;;;;;;;1.91;65.29;99347.45;106014;1277;97942;-71
2022/04/12 03:53:05;;;;;;;20.90;9.70;;;;;;;1.90;65.37;99348.70;106013;1277;98206;-70
2022/04/12 03:55:35;;;;;;;22.80;9.90;;;;;;;1.90;65.55;99348.52;105974;1274;110429;-70
2022/04/12 03:58:09;;;;;;;19.30;9.10;;;;;;;1.89;65.44;99352.04;106057;1277;95287;-72
2022/04/12 04:00:37;;;;;;;23.70;10.10;;;;;;;1.90;65.49;99350.80;106010;1274;107391;-72
2022/04/12 04:03:05;;;;;;;21.70;10.50;;;;;;;1.90;65.46;99353.08;105979;1276;97995;-70
2022/04/12 04:05:33;;;;;;;22.80;11.00;;;;;;;1.92;65.53;99351.62;106046;1274;98541;-71
2022/04/12 04:08:00;;;;;;;22.50;10.80;;;;;;;1.95;65.61;99352.23;106142;1274;111209;-70
2022/04/12 04:10:28;;;;;;;23.90;10.80;;;;;;;1.96;65.54;99352.18;106085;1274;97908;-72
2022/04/12 04:12:56;;;;;;;24.20;12.50;;;;;;;1.97;65.65;99354.26;105959;1276;107447;-68
2022/04/12 04:15:24;;;;;;;21.90;11.10;;;;;;;2.00;65.67;99356.23;105973;1274;97919;-71
2022/04/12 04:17:52;;;;;;;25.50;12.00;;;;;;;2.04;65.87;99359.95;106113;1274;97844;-69
2022/04/12 04:20:22;;;;;;;24.30;12.20;;;;;;;2.07;65.86;99363.02;106047;1274;112327;-76
2022/04/12 04:22:50;;;;;;;23.00;11.00;;;;;;;2.12;65.70;99357.97;106060;1274;98069;-76
2022/04/12 04:25:20;;;;;;;22.20;12.10;;;;;;;2.10;65.47;99352.06;106028;1274;107756;-76
2022/04/12 04:27:49;;;;;;;23.80;11.00;;;;;;;2.01;66.05;99360.59;106012;1274;97893;-77
2022/04/12 04:30:18;;;;;;;23.50;11.30;;;;;;;1.81;66.34;99360.86;105988;1274;97918;-76
2022/04/12 04:32:50;;;;;;;28.40;13.00;;;;;;;1.64;66.75;99360.02;106005;1274;110249;-76
2022/04/12 04:35:21;;;;;;;26.40;11.80;;;;;;;1.46;66.87;99367.38;106036;1274;97895;-77
2022/04/12 04:37:50;;;;;;;29.10;13.70;;;;;;;1.34;67.14;99372.63;106045;1275;107676;-74
2022/04/12 04:40:23;;;;;;;29.20;14.10;;;;;;;1.25;67.00;99373.95;106096;1274;97898;-75
2022/04/12 04:42:54;;;;;;;23.80;12.20;;;;;;;1.24;66.98;99378.86;106069;1274;97937;-75
2022/04/12 04:45:22;;;;;;;26.90;12.40;;;;;;;1.29;66.86;99377.83;106013;1274;111399;-76
2022/04/12 04:48:00;;;;;;;23.70;12.60;;;;;;;1.33;66.74;99382.09;106045;1276;97974;-76
2022/04/12 04:50:33;;;;;;;26.70;13.20;;;;;;;1.39;66.97;99387.35;106002;1274;106457;-76
2022/04/12 04:53:05;;;;;;;22.70;11.70;;;;;;;1.48;66.99;99388.30;106044;1276;97969;-76
2022/04/12 04:55:35;;;;;;;25.10;13.00;;;;;;;1.58;67.03;99392.70;106060;1274;97874;-75
2022/04/12 04:58:05;;;;;;;25.30;12.80;;;;;;;1.69;67.01;99391.67;105985;1274;112668;-74
2022/04/12 05:00:34;;;;;;;22.60;11.00;;;;;;;1.78;67.10;99390.53;105999;1274;97894;-74
2022/04/12 05:03:06;;;;;;;25.00;12.60;;;;;;;1.86;66.76;99390.44;106049;1274;107587;-76
2022/04/12 05:05:34;;;;;;;22.20;11.60;;;;;;;1.96;66.94;99392.44;106062;1274;96471;-76
2022/04/12 05:08:03;;;;;;;23.40;12.10;;;;;;;2.03;66.86;99393.77;106108;1274;97869;-76
2022/04/12 05:10:33;;;;;;;24.40;13.00;;;;;;;2.11;66.84;99392.81;106070;1277;111388;-75
2022/04/12 05:13:03;;;;;;;23.90;12.40;;;;;;;2.19;66.92;99399.20;106153;1274;95944;-76
2022/04/12 05:15:33;;;;;;;24.50;12.30;;;;;;;2.28;66.82;99403.44;106048;1274;106658;-75
2022/04/12 05:18:06;;;;;;;23.20;12.60;;;;;;;2.37;67.02;99402.65;106133;1274;97885;-76
2022/04/12 05:20:34;;;;;;;23.60;11.60;;;;;;;2.43;66.94;99406.97;106104;1274;95290;-76
2022/04/12 05:23:02;;;;;;;26.50;12.20;;;;;;;2.48;67.04;99412.40;106062;1274;111070;-76
2022/04/12 05:25:29;;;;;;;23.80;11.40;;;;;;;2.51;67.07;99416.14;106037;1274;97853;-77
2022/04/12 05:27:57;;;;;;;26.10;13.10;;;;;;;2.56;67.39;99429.48;106009;1274;107575;-76
2022/04/12 05:30:26;;;;;;;24.80;12.70;;;;;;;2.60;67.19;99437.05;105964;1274;97931;-77
2022/04/12 05:32:54;;;;;;;24.20;12.50;;;;;;;2.63;67.12;99445.88;105994;1277;98415;-76
2022/04/12 05:35:22;;;;;;;33.30;19.00;;;;;;;2.68;67.19;99446.75;106000;1274;111244;-77
2022/04/12 05:37:54;;;;;;;43.70;21.20;;;;;;;2.72;67.25;99448.01;106030;1274;98107;-76
2022/04/12 05:40:38;;;;;;;43.90;23.30;;;;;;;2.75;67.42;99425.50;105967;1277;107901;-77
2022/04/12 05:43:09;;;;;;;43.90;25.90;;;;;;;2.61;67.29;99431.94;105988;1274;97818;-77
2022/04/12 05:45:37;;;;;;;38.30;20.30;;;;;;;2.55;67.51;99444.73;106103;1274;97963;-77
2022/04/12 05:48:05;;;;;;;34.30;16.70;;;;;;;2.58;67.31;99434.83;106124;1274;111422;-75
2022/04/12 05:50:40;;;;;;;29.90;15.70;;;;;;;2.57;67.42;99425.25;106051;1274;97912;-76
2022/04/12 05:53:11;;;;;;;30.10;15.10;;;;;;;2.55;67.49;99420.58;105998;1273;107719;-74
2022/04/12 05:55:39;;;;;;;27.40;13.10;;;;;;;2.57;67.33;99419.30;106058;1274;97970;-74
2022/04/12 05:58:07;;;;;;;26.60;13.80;;;;;;;2.60;67.53;99423.39;106140;1273;95311;-76
2022/04/12 06:00:35;;;;;;;27.70;14.20;;;;;;;2.66;67.66;99432.45;106103;1274;111418;-76
2022/04/12 06:03:03;;;;;;;28.70;15.30;;;;;;;2.74;67.52;99436.21;106139;1274;96955;-76
2022/04/12 06:05:32;;;;;;;25.10;13.00;;;;;;;2.81;67.10;99436.51;106143;1274;107746;-75
2022/04/12 06:08:04;;;;;;;26.70;13.60;;;;;;;2.90;67.25;99436.18;106059;1274;96567;-77
2022/04/12 06:10:32;;;;;;;28.70;13.60;;;;;;;2.99;67.39;99433.95;106054;1274;95387;-76
2022/04/12 06:13:04;;;;;;;27.70;13.80;;;;;;;3.06;67.61;99433.70;105999;1274;109465;-75
2022/04/12 06:15:36;;;;;;;27.00;13.80;;;;;;;3.14;67.55;99436.05;106101;1274;97929;-76
2022/04/12 06:18:10;;;;;;;25.20;12.90;;;;;;;3.22;67.50;99443.46;106047;1274;108548;-76
2022/04/12 06:20:42;;;;;;;66.60;43.70;;;;;;;3.30;67.42;99440.90;106004;1274;97850;-75
2022/04/12 06:23:11;;;;;;;30.20;15.50;;;;;;;3.39;67.47;99441.63;106082;1276;97968;-76
2022/04/12 06:25:38;;;;;;;27.30;12.70;;;;;;;3.48;67.84;99444.09;106168;1273;111325;-76
2022/04/12 06:28:07;;;;;;;24.90;11.40;;;;;;;3.58;67.94;99445.48;106147;1274;96253;-74
2022/04/12 06:30:38;;;;;;;21.60;11.10;;;;;;;3.68;67.92;99448.45;106012;1274;107731;-77
2022/04/12 06:33:06;;;;;;;25.90;12.30;;;;;;;3.77;67.88;99449.30;106103;1274;97967;-75
2022/04/12 06:35:37;;;;;;;24.00;11.30;;;;;;;3.88;67.91;99454.33;106130;1273;97880;-79
2022/04/12 06:38:05;;;;;;;23.80;11.60;;;;;;;3.99;67.92;99459.52;106117;1275;112117;-74
2022/04/12 06:40:35;;;;;;;22.60;11.10;;;;;;;4.09;67.70;99462.13;106126;1274;97900;-76
2022/04/12 06:43:03;;;;;;;24.20;12.00;;;;;;;4.18;67.63;99459.66;106060;1277;107765;-76
2022/04/12 06:45:31;;;;;;;23.90;11.60;;;;;;;4.26;67.91;99462.30;106055;1274;96333;-76
2022/04/12 06:48:02;;;;;;;24.10;11.10;;;;;;;4.37;67.93;99462.58;106061;1274;98066;-75
2022/04/12 06:50:32;;;;;;;21.30;10.70;;;;;;;4.46;67.70;99462.92;106033;1277;111457;-75
2022/04/12 06:53:06;;;;;;;20.20;9.90;;;;;;;4.55;67.85;99465.36;106079;1274;97976;-75
2022/04/12 06:55:34;;;;;;;21.50;10.10;;;;;;;4.65;67.76;99466.18;106177;1274;107765;-77
2022/04/12 06:58:02;;;;;;;27.50;11.30;;;;;;;4.74;67.64;99471.23;106142;1273;97927;-76
2022/04/12 07:00:30;;;;;;;26.20;11.40;;;;;;;4.83;67.62;99472.64;106056;1274;95253;-75
2022/04/12 07:03:00;;;;;;;24.90;12.60;;;;;;;4.93;67.65;99475.72;106136;1274;111374;-72
2022/04/12 07:05:28;;;;;;;23.50;11.40;;;;;;;5.03;67.66;99477.06;106137;1274;97710;-74
2022/04/12 07:07:57;;;;;;;25.50;11.30;;;;;;;5.11;67.56;99473.37;106147;1274;107754;-76
2022/04/12 07:10:26;;;;;;;28.60;12.30;;;;;;;5.19;67.57;99479.19;106179;1274;97868;-73
2022/04/12 07:12:54;;;;;;;23.40;11.20;;;;;;;5.28;67.57;99476.01;106147;1277;97750;-73
2022/04/12 07:15:22;;;;;;;25.90;11.40;;;;;;;5.36;67.59;99476.13;106155;1274;111397;-76
2022/04/12 07:17:50;;;;;;;22.70;10.90;;;;;;;5.45;67.43;99477.48;106095;1274;97845;-75
2022/04/12 07:20:21;;;;;;;24.30;11.80;;;;;;;5.55;67.47;99480.21;106074;1274;107472;-76
2022/04/12 07:22:49;;;;;;;26.10;11.30;;;;;;;5.65;67.34;99480.30;106143;1276;98340;-76
2022/04/12 07:25:18;;;;;;;21.60;10.20;;;;;;;5.77;67.46;99477.45;106146;1274;97899;-76
2022/04/12 07:27:49;;;;;;;22.10;9.90;;;;;;;6.00;67.36;99481.70;106070;1274;111489;-75
2022/04/12 07:30:17;;;;;;;23.90;10.00;;;;;;;7.31;67.04;99473.62;105996;1274;97733;-76
2022/04/12 07:33:06;;;;;;;21.70;8.90;;;;;;;10.12;67.24;99467.95;105968;1276;107735;-75
2022/04/12 07:35:34;;;;;;;20.80;9.00;;;;;;;12.40;67.33;99463.38;105991;1274;95855;-76
2022/04/12 07:38:02;;;;;;;20.30;8.20;;;;;;;14.46;67.01;99458.00;105976;1276;97889;-75
2022/04/12 07:40:30;;;;;;;22.00;8.60;;;;;;;16.24;66.62;99453.39;106016;1274;111453;-74
2022/04/12 07:43:00;;;;;;;20.50;9.60;;;;;;;17.74;65.58;99450.63;106059;1274;97924;-76
2022/04/12 07:45:31;;;;;;;20.90;9.10;;;;;;;19.02;65.12;99442.95;106040;1274;107740;-73
2022/04/12 07:47:59;;;;;;;18.20;8.60;;;;;;;20.30;64.93;99445.48;106030;1274;95988;-76
2022/04/12 07:50:29;;;;;;;19.10;9.20;;;;;;;21.10;64.50;99444.42;105956;1277;97819;-77
2022/04/12 07:52:57;;;;;;;18.20;7.80;;;;;;;21.98;63.97;99444.67;106013;1274;112320;-75
2022/04/12 07:55:25;;;;;;;16.80;7.00;;;;;;;22.95;64.53;99444.67;105950;1274;97992;-73
2022/04/12 07:57:53;;;;;;;17.60;7.10;;;;;;;23.61;63.66;99442.05;106036;1274;107734;-76
2022/04/12 08:00:23;;;;;;;18.10;7.90;;;;;;;24.18;63.65;99442.60;106055;1274;97975;-76
2022/04/12 08:02:53;;;;;;;19.90;8.70;;;;;;;24.60;63.10;99445.95;106073;1274;97966;-75
2022/04/12 08:05:37;;;;;;;20.40;8.70;;;;;;;25.01;62.18;99447.48;106121;1276;111388;-75
2022/04/12 08:08:12;;;;;;;18.80;9.30;;;;;;;25.38;62.26;99452.73;105974;1274;97925;-75
2022/04/12 08:10:44;;;;;;;18.00;8.90;;;;;;;25.53;62.47;99454.13;105961;1274;107789;-75
2022/04/12 08:13:12;;;;;;;17.40;7.90;;;;;;;25.75;62.13;99449.50;105869;1276;96269;-77
2022/04/12 08:15:40;;;;;;;16.60;7.20;;;;;;;26.06;62.24;99452.67;105951;1277;95262;-76
2022/04/12 08:18:09;;;;;;;15.70;7.20;;;;;;;26.42;62.33;99452.59;105958;1274;110476;-76
2022/04/12 08:20:39;;;;;;;17.40;7.70;;;;;;;26.63;61.63;99450.41;105870;1274;97992;-75
2022/04/12 08:23:08;;;;;;;14.80;7.20;;;;;;;26.72;61.16;99449.23;105926;1274;107595;-76
2022/04/12 08:25:36;;;;;;;13.40;6.50;;;;;;;26.94;60.84;99452.40;105922;1277;98564;-75
2022/04/12 08:28:07;;;;;;;15.10;7.40;;;;;;;27.19;59.66;99453.06;105981;1274;95270;-77
2022/04/12 08:30:36;;;;;;;12.10;6.00;;;;;;;27.53;59.86;99456.85;106067;1277;111480;-76
2022/04/12 08:33:06;;;;;;;10.70;5.30;;;;;;;27.60;58.26;99455.03;106030;1274;97974;-77
2022/04/12 08:35:37;;;;;;;13.80;5.90;;;;;;;27.62;57.45;99460.50;105979;1274;107744;-76
2022/04/12 08:38:05;;;;;;;14.90;6.10;;;;;;;27.59;57.07;99459.58;105932;1274;97989;-75
2022/04/12 08:40:36;;;;;;;13.90;5.80;;;;;;;27.47;56.30;99458.12;105986;1274;97057;-77
2022/04/12 08:43:09;;;;;;;11.30;5.30;;;;;;;27.40;55.31;99455.27;106026;1274;111481;-76
2022/04/12 08:45:45;;;;;;;9.20;4.70;;;;;;;26.78;55.34;99459.46;105965;1274;96985;-75
2022/04/12 08:48:17;;;;;;;11.80;5.10;;;;;;;26.71;54.50;99456.29;105876;1274;107781;-76
2022/04/12 08:50:53;;;;;;;10.70;4.70;;;;;;;26.46;54.39;99460.09;105988;1274;97952;-76
2022/04/12 08:53:26;;;;;;;10.80;4.80;;;;;;;26.27;52.70;99458.26;105970;1274;98008;-77
2022/04/12 08:55:56;;;;;;;10.90;4.80;;;;;;;25.85;50.40;99453.40;105960;1274;111311;-76
2022/04/12 08:58:26;;;;;;;10.50;4.70;;;;;;;24.78;51.94;99454.92;106043;1274;97992;-74
2022/04/12 09:00:57;;;;;;;9.50;4.30;;;;;;;24.33;51.64;99453.29;105964;1274;107051;-75
2022/04/12 09:03:25;;;;;;;9.20;4.60;;;;;;;24.00;50.98;99451.85;105966;1274;95983;-75
2022/04/12 09:05:53;;;;;;;11.70;4.80;;;;;;;23.10;50.29;99448.19;106049;1276;96425;-75
2022/04/12 09:08:32;;;;;;;10.50;4.40;;;;;;;22.06;50.00;99454.83;105978;1274;111019;-73
2022/04/12 09:11:09;;;;;;;10.90;4.60;;;;;;;21.88;49.96;99450.90;106080;1274;97788;-77
2022/04/12 09:13:40;;;;;;;9.40;4.00;;;;;;;22.03;47.41;99449.08;106053;1275;107659;-76
2022/04/12 09:16:15;;;;;;;11.40;4.30;;;;;;;21.74;46.22;99454.27;105974;1277;97903;-78
2022/04/12 09:18:46;;;;;;;11.90;4.00;;;;;;;21.91;48.17;99453.80;105999;1274;95207;-77
2022/04/12 09:21:22;;;;;;;7.30;3.60;;;;;;;22.44;47.70;99452.98;105968;1275;111380;-76
2022/04/12 09:23:53;;;;;;;9.10;3.60;;;;;;;22.51;47.24;99446.56;105969;1274;97842;-75
2022/04/12 09:26:21;;;;;;;9.80;3.60;;;;;;;21.76;44.89;99449.86;105906;1276;108771;-77
2022/04/12 09:28:56;;;;;;;11.90;4.10;;;;;;;21.35;46.10;99452.98;106083;1274;97959;-76
2022/04/12 09:31:25;;;;;;;8.90;3.60;;;;;;;20.92;45.05;99455.25;106098;1273;97841;-76
2022/04/12 09:33:56;;;;;;;10.00;4.20;;;;;;;20.61;43.51;99453.35;106114;1274;111586;-76
2022/04/12 09:36:24;;;;;;;8.00;3.80;;;;;;;19.68;45.01;99452.73;106106;1277;98100;-76
2022/04/12 09:38:59;;;;;;;12.00;3.80;;;;;;;18.74;42.79;99456.14;106013;1276;108585;-76
2022/04/12 09:41:29;;;;;;;9.30;3.70;;;;;;;17.88;43.78;99458.45;106033;1274;97879;-76
2022/04/12 09:44:07;;;;;;;12.60;4.10;;;;;;;18.17;44.69;99457.10;106102;1273;97908;-79
2022/04/12 09:46:38;;;;;;;9.20;3.70;;;;;;;18.73;44.86;99453.36;106132;1274;111474;-77
2022/04/12 09:49:08;;;;;;;9.60;3.70;;;;;;;19.16;43.90;99449.48;106146;1274;97876;-77
2022/04/12 09:51:38;;;;;;;10.90;3.60;;;;;;;18.81;44.03;99456.70;106038;1274;107778;-77
2022/04/12 09:54:21;;;;;;;11.50;4.30;;;;;;;18.69;43.76;99455.02;106134;1274;95179;-76
2022/04/12 09:56:56;;;;;;;10.20;3.90;;;;;;;18.58;43.65;99453.61;105979;1274;97998;-76
2022/04/12 09:59:49;;;;;;;8.10;3.50;;;;;;;18.50;43.89;99452.48;106043;1272;112277;-75
2022/04/12 10:02:17;;;;;;;11.60;4.20;;;;;;;18.33;43.09;99447.45;106021;1274;98005;-77
2022/04/12 10:04:48;;;;;;;9.00;3.90;;;;;;;17.88;43.05;99448.23;106046;1274;109487;-78
2022/04/12 10:07:19;;;;;;;12.60;4.00;;;;;;;17.21;41.91;99453.34;106050;1274;98551;-78
2022/04/12 10:09:52;;;;;;;10.60;4.00;;;;;;;16.61;42.56;99458.48;105993;1274;95212;-76
2022/04/12 10:12:21;;;;;;;10.70;3.80;;;;;;;16.12;42.13;99461.05;106011;1276;111499;-76
2022/04/12 10:14:51;;;;;;;10.20;3.90;;;;;;;15.52;41.84;99456.14;105983;1274;98047;-76
2022/04/12 10:17:19;;;;;;;9.70;3.70;;;;;;;14.94;40.92;99456.23;105954;1276;108708;-76
2022/04/12 10:19:49;;;;;;;11.40;3.80;;;;;;;14.56;41.83;99460.98;105945;1272;97990;-77
2022/04/12 10:22:17;;;;;;;9.50;3.80;;;;;;;14.49;42.07;99456.53;105972;1274;98573;-75
2022/04/12 10:24:46;;;;;;;10.10;4.10;;;;;;;14.47;41.72;99451.91;105923;1274;111338;-76
2022/04/12 10:27:14;;;;;;;10.50;3.60;;;;;;;14.54;41.71;99452.05;105886;1274;97969;-77
2022/04/12 10:30:21;;;;;;;10.90;3.60;;;;;;;14.66;41.76;99453.19;105983;1273;107905;-79
2022/04/12 10:33:08;;;;;;;10.70;3.60;;;;;;;14.37;39.77;99452.84;106099;1274;97993;-77
2022/04/12 10:35:44;;;;;;;10.80;3.50;;;;;;;13.97;40.97;99453.84;106002;1274;96368;-77
2022/04/12 10:38:18;;;;;;;11.40;4.20;;;;;;;13.95;40.98;99450.55;106005;1274;111445;-77
2022/04/12 10:40:54;;;;;;;10.50;4.10;;;;;;;13.89;40.68;99451.90;106095;1274;97859;-77
2022/04/12 10:43:22;;;;;;;6.80;3.40;;;;;;;13.70;40.60;99447.93;106038;1277;107809;-76
2022/04/12 10:45:52;;;;;;;12.00;3.80;;;;;;;13.51;40.40;99446.92;105960;1276;95996;-76
2022/04/12 10:48:27;;;;;;;9.00;3.80;;;;;;;13.31;40.28;99445.80;105939;1276;95908;-76
2022/04/12 10:51:04;;;;;;;13.20;4.00;;;;;;;13.13;40.56;99449.32;105935;1276;111366;-79
2022/04/12 10:53:35;;;;;;;10.10;3.40;;;;;;;12.95;40.32;99447.77;106101;1276;96393;-75
2022/04/12 10:56:13;;;;;;;7.90;3.40;;;;;;;12.79;40.41;99450.29;106012;1274;108698;-77
2022/04/12 10:58:44;;;;;;;9.70;3.80;;;;;;;12.67;40.19;99445.98;105945;1276;97995;-76
2022/04/12 11:01:28;;;;;;;11.80;4.20;;;;;;;12.67;40.44;99442.64;105970;1277;95870;-75
2022/04/12 11:04:04;;;;;;;9.20;3.70;;;;;;;12.83;40.50;99436.61;105922;1277;111470;-77
2022/04/12 11:06:34;;;;;;;11.60;4.00;;;;;;;12.87;40.08;99439.19;105937;1275;95391;-76
2022/04/12 11:09:09;;;;;;;11.20;4.00;;;;;;;12.86;39.81;99431.05;105942;1276;107666;-75
2022/04/12 11:11:44;;;;;;;10.40;3.50;;;;;;;12.91;39.91;99431.39;106005;1274;98636;-75
2022/04/12 11:14:24;;;;;;;12.80;3.90;;;;;;;13.02;39.90;99431.10;105987;1277;97989;-76
2022/04/12 11:16:59;;;;;;;11.50;4.00;;;;;;;13.11;40.34;99430.91;105973;1277;111517;-76
2022/04/12 11:19:40;;;;;;;9.20;3.70;;;;;;;13.16;40.39;99434.26;105677;1274;97019;-75
2022/04/12 11:22:14;;;;;;;8.60;3.60;;;;;;;13.23;40.25;99434.29;105869;1274;107867;-75
2022/04/12 11:25:03;;;;;;;9.00;3.40;;;;;;;13.26;40.04;99440.29;105968;1274;95382;-77
2022/04/12 11:27:31;;;;;;;6.90;3.40;;;;;;;13.12;39.94;99438.47;106040;1274;97107;-75
2022/04/12 11:29:59;;;;;;;7.20;3.00;;;;;;;13.04;40.12;99437.86;105982;1274;111402;-74
2022/04/12 11:32:31;;;;;;;10.70;3.70;;;;;;;12.99;39.88;99435.41;105874;1274;98001;-74
2022/04/12 11:34:59;;;;;;;10.20;3.40;;;;;;;13.00;39.92;99428.96;105851;1274;108419;-76